Corky — WDC3366 — position and weather

sailwx.info

Track history (hours):
 
Tides and Currents Weather Stations Pressure Air Temp Water Temp Dewpoint Dewpoint Depression Visibility Wind Speed Wind Dir Waves Ship Positions

Corky

Owner: Gulf South Marine Transportation, Inc., New Orleans, LA. More information available from US FCC via Universal Licensing System and Coast Guard Vessel Documentation Center.

Last reported at 2015-Jul-07 00:09 UTC. Time now 2015-Jul-07 02:32 UTC.
Position N 29°57' W 090°09'.

Length 18 m; draft 3.3 m.

Type: Tow > 200 m length. MMSI: 367006780.

Date/timePositionNaut miles runAvg speedWind from/ knotsBaromVisibWave heightAir tempDewpointWater temp
2015-Jul-07 00:09N 29°57' W 090°09'1 1.6
2015-Jul-06 23:28N 29°56' W 090°08'3 1.6
2015-Jul-06 21:29N 29°55' W 090°05'3 2.4
2015-Jul-06 20:14N 29°57' W 090°03'1 1.2
2015-Jul-06 19:27N 29°58' W 090°02'  
2015-Jun-30 23:33N 30°01' W 089°54'4 3.5
2015-Jun-30 22:20N 29°60' W 089°59'4 1.4
2015-Jun-30 19:19N 30°01' W 089°54'6 7.9
2015-Jun-30 18:33N 29°60' W 090°01'0 0.4
2015-Jun-30 17:32N 30°00' W 090°01'3 0.1
2015-Jun-29 10:32N 29°57' W 090°02'0 0.0
2015-Jun-29 09:29N 29°57' W 090°02'1 0.8
2015-Jun-29 08:32N 29°57' W 090°01'7 0.6
2015-Jun-28 19:31N 29°57' W 090°10'2 2.4
2015-Jun-28 18:31N 29°55' W 090°08'4 3.5
2015-Jun-28 17:28N 29°55' W 090°04'3 2.8
2015-Jun-28 16:33N 29°57' W 090°02'1 0.9
2015-Jun-28 15:28N 29°58' W 090°02'  
Track history (hours):
 
Tides and Currents Weather Stations Pressure Air Temp Water Temp Dewpoint Dewpoint Depression Visibility Wind Speed Wind Dir Waves Ship Positions

Corky

Owner: Gulf South Marine Transportation, Inc., New Orleans, LA. More information available from US FCC via Universal Licensing System and Coast Guard Vessel Documentation Center.

Last reported at 2015-Jul-07 00:09 UTC. Time now 2015-Jul-07 02:32 UTC.
Position N 29°57' W 090°09'.

Length 18 m; draft 3.3 m.

Type: Tow > 200 m length. MMSI: 367006780.

Date/timePositionNaut miles runAvg speedWind from/ knotsBaromVisibWave heightAir tempDewpointWater temp
2015-Jul-07 00:09N 29°57' W 090°09'1 1.6
2015-Jul-06 23:28N 29°56' W 090°08'3 1.6
2015-Jul-06 21:29N 29°55' W 090°05'3 2.4
2015-Jul-06 20:14N 29°57' W 090°03'1 1.2
2015-Jul-06 19:27N 29°58' W 090°02'  
2015-Jun-30 23:33N 30°01' W 089°54'4 3.5
2015-Jun-30 22:20N 29°60' W 089°59'4 1.4
2015-Jun-30 19:19N 30°01' W 089°54'6 7.9
2015-Jun-30 18:33N 29°60' W 090°01'0 0.4
2015-Jun-30 17:32N 30°00' W 090°01'3 0.1
2015-Jun-29 10:32N 29°57' W 090°02'0 0.0
2015-Jun-29 09:29N 29°57' W 090°02'1 0.8
2015-Jun-29 08:32N 29°57' W 090°01'7 0.6
2015-Jun-28 19:31N 29°57' W 090°10'2 2.4
2015-Jun-28 18:31N 29°55' W 090°08'4 3.5
2015-Jun-28 17:28N 29°55' W 090°04'3 2.8
2015-Jun-28 16:33N 29°57' W 090°02'1 0.9
2015-Jun-28 15:28N 29°58' W 090°02'  

Dump ship's entire track history